createdAt,value
2018-04-29T00:01:27.194Z,13.80
2018-04-29T00:03:53.825Z,13.80
2018-04-29T00:06:21.282Z,14.00
2018-04-29T00:08:47.919Z,14.00
2018-04-29T00:11:15.273Z,14.20
2018-04-29T00:13:41.909Z,14.20
2018-04-29T00:16:14.188Z,14.60
2018-04-29T00:18:40.818Z,14.30
2018-04-29T00:21:07.416Z,14.30
2018-04-29T00:23:34.809Z,13.60
2018-04-29T00:26:02.468Z,13.50
2018-04-29T00:28:29.824Z,14.30
2018-04-29T00:30:57.282Z,14.20
2018-04-29T00:33:23.928Z,14.20
2018-04-29T00:35:50.657Z,14.10
2018-04-29T00:38:17.296Z,14.20
2018-04-29T00:40:44.622Z,13.90
2018-04-29T00:43:11.985Z,14.10
2018-04-29T00:45:39.460Z,14.30
2018-04-29T00:48:06.101Z,14.20
2018-04-29T00:50:33.718Z,14.30
2018-04-29T00:53:00.292Z,14.30
2018-04-29T00:55:26.930Z,14.10
2018-04-29T00:57:54.264Z,13.80
2018-04-29T01:00:22.330Z,13.80
2018-04-29T01:02:49.915Z,14.10
2018-04-29T01:05:16.552Z,14.10
2018-04-29T01:07:52.705Z,14.20
2018-04-29T01:10:21.263Z,14.20
2018-04-29T01:12:48.137Z,13.70
2018-04-29T01:15:14.887Z,13.80
2018-04-29T01:17:41.617Z,13.80
2018-04-29T01:20:09.994Z,13.80
2018-04-29T01:22:36.734Z,13.80
2018-04-29T01:25:03.350Z,13.60
2018-04-29T01:27:30.726Z,14.00
2018-04-29T01:29:57.363Z,13.90
2018-04-29T01:32:24.717Z,14.00
2018-04-29T01:34:52.070Z,13.70
2018-04-29T01:37:18.715Z,13.60
2018-04-29T01:39:45.347Z,13.40
2018-04-29T01:42:12.086Z,13.30
2018-04-29T01:44:39.443Z,13.50
2018-04-29T01:47:06.163Z,13.40
2018-04-29T01:49:33.533Z,13.70
2018-04-29T01:52:00.887Z,13.50
2018-04-29T01:54:40.633Z,13.50
2018-04-29T01:57:07.271Z,13.50
2018-04-29T01:59:33.908Z,13.60
2018-04-29T02:02:00.752Z,13.30
2018-04-29T02:04:27.490Z,13.40
2018-04-29T02:06:54.127Z,13.30
2018-04-29T02:09:20.765Z,13.10
2018-04-29T02:11:47.401Z,12.90
2018-04-29T02:14:14.963Z,13.10
2018-04-29T02:16:41.597Z,13.30
2018-04-29T02:19:08.234Z,13.40
2018-04-29T02:21:35.590Z,13.40
2018-04-29T02:24:02.163Z,13.30
2018-04-29T02:26:28.764Z,13.10
2018-04-29T02:28:55.398Z,13.00
2018-04-29T02:31:22.064Z,12.80
2018-04-29T02:33:48.776Z,12.80
2018-04-29T02:36:15.516Z,13.00
2018-04-29T02:38:42.155Z,13.20
2018-04-29T02:41:08.791Z,13.30
2018-04-29T02:43:35.428Z,13.50
2018-04-29T02:46:02.066Z,13.50
2018-04-29T02:48:28.702Z,13.40
2018-04-29T02:50:56.059Z,13.30
2018-04-29T02:53:22.694Z,13.20
2018-04-29T02:55:49.332Z,13.20
2018-04-29T02:58:16.686Z,13.00
2018-04-29T03:00:44.039Z,12.80
2018-04-29T03:03:10.758Z,12.70
2018-04-29T03:05:40.475Z,12.80
2018-04-29T03:08:07.844Z,12.90
2018-04-29T03:10:34.480Z,12.90
2018-04-29T03:13:01.834Z,12.50
2018-04-29T03:15:29.188Z,13.00
2018-04-29T03:17:55.826Z,12.90
2018-04-29T03:20:22.441Z,12.90
2018-04-29T03:22:49.817Z,12.70
2018-04-29T03:25:16.556Z,12.70
2018-04-29T03:27:43.194Z,12.60
2018-04-29T03:30:09.935Z,12.50
2018-04-29T03:32:36.549Z,12.60
2018-04-29T03:35:04.028Z,12.80
2018-04-29T03:37:30.664Z,12.70
2018-04-29T03:39:57.303Z,13.10
2018-04-29T03:42:24.657Z,13.10
2018-04-29T03:44:51.297Z,13.00
2018-04-29T03:47:17.932Z,12.50
2018-04-29T03:49:44.570Z,12.20
2018-04-29T03:52:11.923Z,13.10
2018-04-29T03:54:39.380Z,12.80
2018-04-29T03:57:18.204Z,12.80
2018-04-29T03:59:56.922Z,12.90
2018-04-29T04:02:35.755Z,12.60
2018-04-29T04:05:03.203Z,12.50
2018-04-29T04:07:29.841Z,12.50
2018-04-29T04:09:56.578Z,12.80
2018-04-29T04:12:23.216Z,12.90
2018-04-29T04:14:49.828Z,13.00
2018-04-29T04:17:17.311Z,12.30
2018-04-29T04:19:44.051Z,12.20
2018-04-29T04:22:10.687Z,12.50
2018-04-29T04:24:37.324Z,12.20
2018-04-29T04:27:03.961Z,12.40
2018-04-29T04:29:31.418Z,12.30
2018-04-29T04:31:58.056Z,12.30
2018-04-29T04:34:25.414Z,12.50
2018-04-29T04:36:52.047Z,12.40
2018-04-29T04:39:18.890Z,12.10
2018-04-29T04:41:47.165Z,12.30
2018-04-29T04:44:13.803Z,12.60
2018-04-29T04:46:41.157Z,12.80
2018-04-29T04:49:07.793Z,12.70
2018-04-29T04:51:35.147Z,12.80
2018-04-29T04:54:02.604Z,13.00
2018-04-29T04:56:29.344Z,13.00
2018-04-29T04:58:57.927Z,13.00
2018-04-29T05:01:25.383Z,12.30
2018-04-29T05:03:52.842Z,12.50
2018-04-29T05:06:19.478Z,12.50
2018-04-29T05:08:46.118Z,12.80
2018-04-29T05:11:12.695Z,12.80
2018-04-29T05:13:39.404Z,12.80
2018-04-29T05:16:06.026Z,12.70
2018-04-29T05:18:32.664Z,12.40
2018-04-29T05:21:00.120Z,11.70
2018-04-29T05:23:26.758Z,11.70
2018-04-29T05:25:54.112Z,11.70
2018-04-29T05:28:21.450Z,11.70
2018-04-29T05:30:48.803Z,11.80
2018-04-29T05:33:16.174Z,12.00
2018-04-29T05:35:43.528Z,12.10
2018-04-29T05:38:10.883Z,12.20
2018-04-29T05:40:38.237Z,12.20
2018-04-29T05:43:05.590Z,12.30
2018-04-29T05:45:34.076Z,12.30
2018-04-29T05:48:01.267Z,12.30
2018-04-29T05:50:27.960Z,12.40
2018-04-29T05:52:54.586Z,12.50
2018-04-29T05:55:22.055Z,12.60
2018-04-29T05:57:55.759Z,12.60
2018-04-29T06:00:23.154Z,12.80
2018-04-29T06:02:49.853Z,12.80
2018-04-29T06:05:16.693Z,12.90
2018-04-29T06:07:43.334Z,13.00
2018-04-29T06:10:09.972Z,13.00
2018-04-29T06:12:37.325Z,13.20
2018-04-29T06:15:04.883Z,13.10
2018-04-29T06:17:32.240Z,13.30
2018-04-29T06:19:58.975Z,13.30
2018-04-29T06:22:25.613Z,13.30
2018-04-29T06:24:52.251Z,13.50
2018-04-29T06:27:19.707Z,13.60
2018-04-29T06:29:46.346Z,13.60
2018-04-29T06:32:13.801Z,13.80
2018-04-29T06:34:40.642Z,13.70
2018-04-29T06:37:07.381Z,13.90
2018-04-29T06:39:34.020Z,14.00
2018-04-29T06:42:01.357Z,13.90
2018-04-29T06:44:27.925Z,13.90
2018-04-29T06:46:54.800Z,14.00
2018-04-29T06:49:21.476Z,14.10
2018-04-29T06:51:48.114Z,14.10
2018-04-29T06:54:15.488Z,14.20
2018-04-29T06:56:42.126Z,14.20
2018-04-29T06:59:08.967Z,14.30
2018-04-29T07:01:37.138Z,14.20
2018-04-29T07:04:04.698Z,14.20
2018-04-29T07:06:31.441Z,14.10
2018-04-29T07:08:58.179Z,14.30
2018-04-29T07:11:24.740Z,14.30
2018-04-29T07:13:51.556Z,14.30
2018-04-29T07:16:19.325Z,14.40
2018-04-29T07:18:45.904Z,14.40
2018-04-29T07:21:12.580Z,14.50
2018-04-29T07:23:39.232Z,14.60
2018-04-29T07:26:06.744Z,14.50
2018-04-29T07:28:33.540Z,14.50
2018-04-29T07:31:00.894Z,14.70
2018-04-29T07:33:28.450Z,14.70
2018-04-29T07:35:56.009Z,14.70
2018-04-29T07:38:22.845Z,14.60
2018-04-29T07:40:50.404Z,14.50
2018-04-29T07:43:17.144Z,14.50
2018-04-29T07:45:43.986Z,14.50
2018-04-29T07:48:10.624Z,14.60
2018-04-29T07:50:37.462Z,14.60
2018-04-29T07:53:04.100Z,14.50
2018-04-29T07:55:31.659Z,14.70
2018-04-29T07:57:58.929Z,14.70
2018-04-29T08:00:25.859Z,14.70
2018-04-29T08:02:52.577Z,14.80
2018-04-29T08:05:19.944Z,15.00
2018-04-29T08:07:46.587Z,14.90
2018-04-29T08:10:14.150Z,15.10
2018-04-29T08:12:40.885Z,15.10
2018-04-29T08:15:08.349Z,15.00
2018-04-29T08:17:34.984Z,14.90
2018-04-29T08:20:01.548Z,15.10
2018-04-29T08:22:28.154Z,15.10
2018-04-29T08:24:55.091Z,15.10
2018-04-29T08:27:21.739Z,15.10
2018-04-29T08:29:48.379Z,15.10
2018-04-29T08:32:15.107Z,15.20
2018-04-29T08:34:41.745Z,15.10
2018-04-29T08:37:09.200Z,15.10
2018-04-29T08:39:35.852Z,15.10
2018-04-29T08:42:02.576Z,15.20
2018-04-29T08:44:29.317Z,15.20
2018-04-29T08:46:56.038Z,15.20
2018-04-29T08:49:22.776Z,15.50
2018-04-29T08:51:49.331Z,15.60
2018-04-29T08:54:15.969Z,15.70
2018-04-29T08:56:42.607Z,15.60
2018-04-29T08:59:09.346Z,15.70
2018-04-29T09:01:35.984Z,15.80
2018-04-29T09:04:02.688Z,15.80
2018-04-29T09:06:29.360Z,15.80
2018-04-29T09:08:56.202Z,15.70
2018-04-29T09:11:23.025Z,15.70
2018-04-29T09:13:51.220Z,15.70
2018-04-29T09:16:17.863Z,15.70
2018-04-29T09:18:44.493Z,15.70
2018-04-29T09:21:11.231Z,15.80
2018-04-29T09:23:37.849Z,15.80
2018-04-29T09:26:04.486Z,15.90
2018-04-29T09:28:31.144Z,15.90
2018-04-29T09:30:57.883Z,16.00
2018-04-29T09:33:24.621Z,16.10
2018-04-29T09:35:52.081Z,16.10
2018-04-29T09:38:18.725Z,16.10
2018-04-29T09:40:45.353Z,16.40
2018-04-29T09:43:12.120Z,16.30
2018-04-29T09:45:38.833Z,16.30
2018-04-29T09:48:06.290Z,16.70
2018-04-29T09:50:33.628Z,16.60
2018-04-29T09:53:00.997Z,16.60
2018-04-29T09:55:27.737Z,16.50
2018-04-29T09:58:01.522Z,16.70
2018-04-29T10:00:30.928Z,16.80
2018-04-29T10:03:03.932Z,16.80
2018-04-29T10:05:30.571Z,16.70
2018-04-29T10:07:57.307Z,16.80
2018-04-29T10:10:24.662Z,17.10
2018-04-29T10:12:51.298Z,17.10
2018-04-29T10:15:18.757Z,16.80
2018-04-29T10:17:46.189Z,16.90
2018-04-29T10:20:12.848Z,16.80
2018-04-29T10:22:40.306Z,17.20
2018-04-29T10:25:06.946Z,17.10
2018-04-29T10:27:33.583Z,17.10
2018-04-29T10:30:00.223Z,17.20
2018-04-29T10:32:27.597Z,17.20
2018-04-29T10:34:54.313Z,17.20
2018-04-29T10:37:21.666Z,17.60
2018-04-29T10:39:49.224Z,17.60
2018-04-29T10:42:16.681Z,17.70
2018-04-29T10:44:44.137Z,17.60
2018-04-29T10:47:10.776Z,17.50
2018-04-29T10:49:37.516Z,17.80
2018-04-29T10:52:04.868Z,17.80
2018-04-29T10:54:32.532Z,17.80
2018-04-29T10:56:59.885Z,17.70
2018-04-29T10:59:27.342Z,17.70
2018-04-29T11:01:54.797Z,17.90
2018-04-29T11:04:21.511Z,17.90
2018-04-29T11:06:48.051Z,17.90
2018-04-29T11:09:15.527Z,18.00
2018-04-29T11:11:42.228Z,18.00
2018-04-29T11:14:08.803Z,18.10
2018-04-29T11:16:36.157Z,18.40
2018-04-29T11:19:03.432Z,18.60
2018-04-29T11:21:30.148Z,18.50
2018-04-29T11:23:57.501Z,18.30
2018-04-29T11:26:25.146Z,18.30
2018-04-29T11:28:51.677Z,18.30
2018-04-29T11:31:18.232Z,18.20
2018-04-29T11:33:45.618Z,18.20
2018-04-29T11:36:12.327Z,18.10
2018-04-29T11:38:39.681Z,18.80
2018-04-29T11:41:07.138Z,19.10
2018-04-29T11:43:34.491Z,19.30
2018-04-29T11:46:01.948Z,19.20
2018-04-29T11:48:29.401Z,19.40
2018-04-29T11:50:56.758Z,19.50
2018-04-29T11:53:24.112Z,19.70
2018-04-29T11:55:51.568Z,19.50
2018-04-29T11:58:18.205Z,19.40
2018-04-29T12:00:45.537Z,19.40
2018-04-29T12:03:12.200Z,19.30
2018-04-29T12:05:39.448Z,19.40
2018-04-29T12:08:06.803Z,19.40
2018-04-29T12:10:34.156Z,19.70
2018-04-29T12:13:01.612Z,20.20
2018-04-29T12:15:28.253Z,20.10
2018-04-29T12:17:55.605Z,20.10
2018-04-29T12:20:22.941Z,20.20
2018-04-29T12:22:49.493Z,20.20
2018-04-29T12:25:16.941Z,20.10
2018-04-29T12:27:43.466Z,20.10
2018-04-29T12:30:18.733Z,20.10
2018-04-29T12:32:46.086Z,20.10
2018-04-29T12:35:21.532Z,20.10
2018-04-29T12:37:50.521Z,20.40
2018-04-29T12:40:19.939Z,21.10
2018-04-29T12:42:48.192Z,21.00
2018-04-29T12:45:27.248Z,21.10
2018-04-29T12:47:54.821Z,21.40
2018-04-29T12:50:21.622Z,21.30
2018-04-29T12:52:48.975Z,20.90
2018-04-29T12:55:16.328Z,20.60
2018-04-29T12:57:42.968Z,20.60
2018-04-29T13:00:22.863Z,20.80
2018-04-29T13:02:49.846Z,20.80
2018-04-29T13:05:17.146Z,20.60
2018-04-29T13:07:43.748Z,20.60
2018-04-29T13:10:11.293Z,20.90
2018-04-29T13:12:38.764Z,21.20
2018-04-29T13:15:06.323Z,21.10
2018-04-29T13:17:33.630Z,21.20
2018-04-29T13:20:07.381Z,21.10
2018-04-29T13:22:34.119Z,21.40
2018-04-29T13:25:00.757Z,21.40
2018-04-29T13:27:28.090Z,21.90
2018-04-29T13:29:54.623Z,21.90
2018-04-29T13:32:21.282Z,22.10
2018-04-29T13:34:48.740Z,22.70
2018-04-29T13:37:16.098Z,23.00
2018-04-29T13:39:42.731Z,22.90
2018-04-29T13:42:09.485Z,23.30
2018-04-29T13:44:36.090Z,23.80
2018-04-29T13:47:03.462Z,24.10
2018-04-29T13:49:30.098Z,24.00
2018-04-29T13:51:56.843Z,24.00
2018-04-29T13:54:25.013Z,24.30
2018-04-29T13:56:52.468Z,24.30
2018-04-29T13:59:19.209Z,24.20
2018-04-29T14:01:46.566Z,24.90
2018-04-29T14:04:13.407Z,24.80
2018-04-29T14:06:40.030Z,24.80
2018-04-29T14:09:06.679Z,25.40
2018-04-29T14:11:34.031Z,25.60
2018-04-29T14:14:00.777Z,25.60
2018-04-29T14:16:27.410Z,25.70
2018-04-29T14:18:54.765Z,25.80
2018-04-29T14:21:21.403Z,25.80
2018-04-29T14:23:48.143Z,25.80
2018-04-29T14:26:14.779Z,26.20
2018-04-29T14:28:41.824Z,26.30
2018-04-29T14:31:09.180Z,26.20
2018-04-29T14:33:36.531Z,26.20
2018-04-29T14:36:03.158Z,26.20
2018-04-29T14:38:30.468Z,26.80
2018-04-29T14:40:57.808Z,27.30
2018-04-29T14:43:24.618Z,27.20
2018-04-29T14:45:51.152Z,27.10
2018-04-29T14:48:17.891Z,27.20
2018-04-29T14:50:44.530Z,28.10
2018-04-29T14:53:13.119Z,27.80
2018-04-29T14:55:40.261Z,27.40
2018-04-29T14:58:07.540Z,28.20
2018-04-29T15:00:34.252Z,28.20
2018-04-29T15:03:01.708Z,30.50
2018-04-29T15:05:29.061Z,30.30
2018-04-29T15:07:56.417Z,31.40
2018-04-29T15:10:23.825Z,31.50
2018-04-29T15:12:50.510Z,31.40
2018-04-29T15:15:17.148Z,31.50
2018-04-29T15:17:44.501Z,31.70
2018-04-29T15:20:11.857Z,32.50
2018-04-29T15:22:38.494Z,32.40
2018-04-29T15:25:05.847Z,33.30
2018-04-29T15:27:33.203Z,32.70
2018-04-29T15:29:59.839Z,32.60
2018-04-29T15:32:27.193Z,32.10
2018-04-29T15:34:54.546Z,32.80
2018-04-29T15:37:21.900Z,33.60
2018-04-29T15:39:49.256Z,33.90
2018-04-29T15:42:16.608Z,33.10
2018-04-29T15:44:43.948Z,32.20
2018-04-29T15:47:11.317Z,32.30
2018-04-29T15:49:38.670Z,33.00
2018-04-29T15:52:06.029Z,32.60
2018-04-29T15:54:33.379Z,32.60
2018-04-29T15:57:00.734Z,32.20
2018-04-29T15:59:27.347Z,32.10
2018-04-29T16:01:55.442Z,32.30
2018-04-29T16:04:22.794Z,32.70
2018-04-29T16:06:50.148Z,32.90
2018-04-29T16:09:18.505Z,34.10
2018-04-29T16:11:45.203Z,34.00
2018-04-29T16:14:12.112Z,33.20
2018-04-29T16:16:40.281Z,32.70
2018-04-29T16:19:07.634Z,32.60
2018-04-29T16:21:34.250Z,32.50
2018-04-29T16:24:01.709Z,32.60
2018-04-29T16:26:28.262Z,32.60
2018-04-29T16:28:54.899Z,32.70
2018-04-29T16:31:21.536Z,32.90
2018-04-29T16:33:48.867Z,31.30
2018-04-29T16:36:15.732Z,31.30
2018-04-29T16:38:42.372Z,32.50
2018-04-29T16:41:09.723Z,32.30
2018-04-29T16:43:37.083Z,31.70
2018-04-29T16:46:03.715Z,31.70
2018-04-29T16:48:30.351Z,31.00
2018-04-29T16:50:57.706Z,32.20
2018-04-29T16:53:25.163Z,31.80
2018-04-29T16:55:53.097Z,31.70
2018-04-29T16:58:19.680Z,31.60
2018-04-29T17:00:46.302Z,31.70
2018-04-29T17:03:13.748Z,31.80
2018-04-29T17:05:41.437Z,30.80
2018-04-29T17:08:08.046Z,30.80
2018-04-29T17:10:35.392Z,30.50
2018-04-29T17:13:02.053Z,30.50
2018-04-29T17:15:28.693Z,30.30
2018-04-29T17:17:55.322Z,30.40
2018-04-29T17:20:22.677Z,30.60
2018-04-29T17:22:50.030Z,30.60
2018-04-29T17:25:17.385Z,30.10
2018-04-29T17:27:44.739Z,29.30
2018-04-29T17:30:12.094Z,29.30
2018-04-29T17:32:39.447Z,29.00
2018-04-29T17:35:06.803Z,28.10
2018-04-29T17:37:34.154Z,27.20
2018-04-29T17:40:00.793Z,27.10
2018-04-29T17:42:27.430Z,26.30
2018-04-29T17:44:54.067Z,25.80
2018-04-29T17:47:20.704Z,25.50
2018-04-29T17:49:47.325Z,24.80
2018-04-29T17:52:14.679Z,24.10
2018-04-29T17:54:42.151Z,23.90
2018-04-29T17:57:08.780Z,23.90
2018-04-29T17:59:36.144Z,23.80
2018-04-29T18:02:02.782Z,23.80
2018-04-29T18:04:30.238Z,22.80
2018-04-29T18:06:56.876Z,22.70
2018-04-29T18:09:24.238Z,22.80
2018-04-29T18:11:51.077Z,22.70
2018-04-29T18:14:17.711Z,22.80
2018-04-29T18:16:44.451Z,22.50
2018-04-29T18:19:11.814Z,22.20
2018-04-29T18:21:38.548Z,22.20
2018-04-29T18:24:05.902Z,22.00
2018-04-29T18:26:32.742Z,21.90
2018-04-29T18:28:59.481Z,22.00
2018-04-29T18:31:31.239Z,21.50
2018-04-29T18:33:57.987Z,21.40
2018-04-29T18:36:24.620Z,21.50
2018-04-29T18:38:52.484Z,21.10
2018-04-29T18:41:19.527Z,21.10
2018-04-29T18:43:46.796Z,21.00
2018-04-29T18:46:13.524Z,20.90
2018-04-29T18:48:40.989Z,21.10
2018-04-29T18:51:07.951Z,21.10
2018-04-29T18:53:34.574Z,21.30
2018-04-29T18:56:01.814Z,21.00
2018-04-29T18:58:28.553Z,20.80
2018-04-29T19:00:56.117Z,20.60
2018-04-29T19:03:22.851Z,20.50
2018-04-29T19:05:58.807Z,20.30
2018-04-29T19:08:26.163Z,20.40
2018-04-29T19:10:52.898Z,20.30
2018-04-29T19:13:20.249Z,20.10
2018-04-29T19:15:47.704Z,20.00
2018-04-29T19:18:14.343Z,19.90
2018-04-29T19:20:40.983Z,19.70
2018-04-29T19:23:08.642Z,19.80
2018-04-29T19:25:35.282Z,19.70
2018-04-29T19:28:01.913Z,19.60
2018-04-29T19:30:29.700Z,19.30
2018-04-29T19:32:56.518Z,19.30
2018-04-29T19:35:23.850Z,19.20
2018-04-29T19:37:50.613Z,19.20
2018-04-29T19:40:17.250Z,19.20
2018-04-29T19:42:44.706Z,18.80
2018-04-29T19:45:11.344Z,18.80
2018-04-29T19:47:37.988Z,18.70
2018-04-29T19:50:04.618Z,18.90
2018-04-29T19:52:31.256Z,18.90
2018-04-29T19:54:57.869Z,18.70
2018-04-29T19:57:24.532Z,18.70
2018-04-29T19:59:51.172Z,18.90
2018-04-29T20:02:17.796Z,18.70
2018-04-29T20:04:45.989Z,18.40
2018-04-29T20:07:12.615Z,18.40
2018-04-29T20:09:39.355Z,18.40
2018-04-29T20:12:05.992Z,18.20
2018-04-29T20:14:32.609Z,18.30
2018-04-29T20:16:59.779Z,18.00
2018-04-29T20:19:26.316Z,17.90
2018-04-29T20:21:54.486Z,17.90
2018-04-29T20:24:21.124Z,17.90
2018-04-29T20:26:47.761Z,17.80
2018-04-29T20:29:15.116Z,17.90
2018-04-29T20:31:41.891Z,17.80
2018-04-29T20:34:08.492Z,17.80
2018-04-29T20:36:35.417Z,17.90
2018-04-29T20:39:02.075Z,17.70
2018-04-29T20:41:28.818Z,17.60
2018-04-29T20:43:55.348Z,17.80
2018-04-29T20:46:22.703Z,17.50
2018-04-29T20:48:49.340Z,17.50
2018-04-29T20:51:15.877Z,17.50
2018-04-29T20:53:43.234Z,17.30
2018-04-29T20:56:09.765Z,17.30
2018-04-29T20:58:36.401Z,17.30
2018-04-29T21:01:03.040Z,17.30
2018-04-29T21:03:30.393Z,17.00
2018-04-29T21:05:57.029Z,16.90
2018-04-29T21:08:24.392Z,16.80
2018-04-29T21:10:50.897Z,16.80
2018-04-29T21:13:17.555Z,17.00
2018-04-29T21:15:44.193Z,17.00
2018-04-29T21:18:10.806Z,16.80
2018-04-29T21:20:37.364Z,16.70
2018-04-29T21:23:04.721Z,16.70
2018-04-29T21:25:31.349Z,16.60
2018-04-29T21:27:58.711Z,16.70
2018-04-29T21:30:26.065Z,16.60
2018-04-29T21:32:52.705Z,16.50
2018-04-29T21:35:19.237Z,16.50
2018-04-29T21:37:45.878Z,16.60
2018-04-29T21:40:13.272Z,16.50
2018-04-29T21:42:39.869Z,16.50
2018-04-29T21:45:06.376Z,16.50
2018-04-29T21:47:32.934Z,16.50
2018-04-29T21:50:00.290Z,16.40
2018-04-29T21:52:26.823Z,16.30
2018-04-29T21:54:53.461Z,16.40
2018-04-29T21:57:19.999Z,16.20
2018-04-29T21:59:46.634Z,16.30
2018-04-29T22:02:13.102Z,16.20
2018-04-29T22:04:39.909Z,16.10
2018-04-29T22:07:06.443Z,16.20
2018-04-29T22:09:33.797Z,16.00
2018-04-29T22:12:00.333Z,15.90
2018-04-29T22:14:27.687Z,16.10
2018-04-29T22:16:55.346Z,16.00
2018-04-29T22:19:21.984Z,16.10
2018-04-29T22:21:48.519Z,16.00
2018-04-29T22:24:15.161Z,16.10
2018-04-29T22:26:45.482Z,16.00
2018-04-29T22:29:12.836Z,15.90
2018-04-29T22:31:39.448Z,15.90
2018-04-29T22:34:06.110Z,15.80
2018-04-29T22:36:32.747Z,15.80
2018-04-29T22:38:59.389Z,15.80
2018-04-29T22:41:25.920Z,15.80
2018-04-29T22:43:52.559Z,15.90
2018-04-29T22:46:19.100Z,15.80
2018-04-29T22:48:45.729Z,15.90
2018-04-29T22:51:12.366Z,16.00
2018-04-29T22:53:39.006Z,15.80
2018-04-29T22:56:05.642Z,15.80
2018-04-29T22:58:32.175Z,15.80
2018-04-29T23:00:59.609Z,15.70
2018-04-29T23:03:26.166Z,15.70
2018-04-29T23:05:52.780Z,15.80
2018-04-29T23:08:19.441Z,15.70
2018-04-29T23:10:46.794Z,15.70
2018-04-29T23:13:14.235Z,15.60
2018-04-29T23:15:41.608Z,15.60
2018-04-29T23:18:10.294Z,15.50
2018-04-29T23:20:37.648Z,15.50
2018-04-29T23:23:05.087Z,15.60
2018-04-29T23:25:32.457Z,15.40
2018-04-29T23:27:59.913Z,15.40
2018-04-29T23:30:27.268Z,15.40
2018-04-29T23:32:54.622Z,15.40
2018-04-29T23:35:21.286Z,15.40
2018-04-29T23:37:47.997Z,15.50
2018-04-29T23:40:15.453Z,15.60
2018-04-29T23:42:42.912Z,15.60
2018-04-29T23:45:10.264Z,15.40
2018-04-29T23:47:36.943Z,15.40
2018-04-29T23:50:03.624Z,15.30
2018-04-29T23:52:30.162Z,15.30
2018-04-29T23:54:57.529Z,15.40
2018-04-29T23:57:24.871Z,15.40
2018-04-29T23:59:51.624Z,15.30
